メインページ
METAR-TAF:

METAR-TAF

空港 :

Ali Al Salem Air Base, クウェート

緯度: 29-20-48N, 経度: 47-31-14E, 海抜: 144m

現時点の気象観測

当レポートは39分前の17:55(UTC)に作成
北/北西の風 8kt
気温 33°C
湿度 14%
気圧 1011 hPa
視程10km以上
晴天

METAR: OKAS 261755Z 33008KT 9999 CLR 33/02 A2986 RMK AO2A SLP106 52010

時間: 21:34 (18:34 UTC)

予報

当レポートは3時間34分前の15:00(UTC)に作成
予報は26日の 15時(UTC)から 27日の 21時(UTC)まで有効
北/北西の風 12kt
視程: 9000m
高度25000ftの雲はほとんどない
煙霧
27日の 04時(UTC)から 27日の 05時(UTC)まで徐々に
北/北西の風 12kt、最大18ktの突風を伴う
視程: 9000m
晴天
煙霧
27日の 08時(UTC)から 27日の 13時(UTC)まで一時的に
北/北西の風 15kt、最大25ktの突風を伴う
27日の 14時(UTC)から 27日の 15時(UTC)まで徐々に
北西の風 12kt
視程10km以上
晴天

TAF: OKAS 261500Z 2615/2721 33012KT 9000 HZ FEW250 QNH2981INS BECMG 2704/2705 33012G18KT 9000 HZ SKC QNH2975INS TEMPO 2708/2713 34015G25KT BECMG 2714/2715 32012KT 9999 NSW SKC QNH2975INS TX43/2712Z TN27/2703Z

4,000以上の空港の気象観測と天気予報(METAR報とTAF報)

利用可能な観測所は地図上に黄色い丸と赤い丸で示す。

丸の上にカーソルを重ねると観測所名を参照できる。

次にクリックすると気象観測と天気予報を参照できる。

マップの切り替え:黒色「×」印の緑ボタンをクリックして拡大、「-」印の緑ボタンをクリックして縮小、緑色の三角印をクリックして隣りの地図に切り替え


METAR-TAF: